Time;durP1;ratioP1;P1;durP2;ratioP2;P2;SDS_P1;SDS_P2;PMS_P1;PMS_P2;Temp;Humidity;BMP_temperature;BMP_pressure;BME280_temperature;BME280_humidity;BME280_pressure;Samples;Min_cycle;Max_cycle;Signal;HPM_P1;HPM_P2
2021/03/16 00:00:28;;;;;;;11.65;4.50;;;;;;;6.10;72.35;100534.59;4945663;28;20371;-61
2021/03/16 00:02:58;;;;;;;9.32;4.28;;;;;;;6.10;72.52;100532.03;4960169;28;20082;-61
2021/03/16 00:05:27;;;;;;;10.05;3.65;;;;;;;6.11;72.00;100538.06;4945029;28;20043;-61
2021/03/16 00:07:55;;;;;;;10.73;3.97;;;;;;;6.11;72.26;100538.06;4961002;28;20090;-62
2021/03/16 00:10:25;;;;;;;12.65;3.83;;;;;;;6.09;72.73;100533.75;4978194;28;20039;-62
2021/03/16 00:12:56;;;;;;;11.88;3.75;;;;;;;6.09;72.71;100535.41;4977850;28;20078;-61
2021/03/16 00:15:24;;;;;;;12.88;4.55;;;;;;;6.09;72.77;100530.28;4977961;28;20031;-61
2021/03/16 00:17:52;;;;;;;20.90;5.40;;;;;;;6.09;72.34;100533.75;4977964;28;20492;-61
2021/03/16 00:20:22;;;;;;;15.15;4.70;;;;;;;6.09;72.03;100531.16;4977821;28;20133;-61
2021/03/16 00:22:50;;;;;;;19.48;3.95;;;;;;;6.12;72.79;100538.13;4977592;28;20552;-61
2021/03/16 00:25:19;;;;;;;9.10;3.58;;;;;;;6.13;72.05;100536.44;4977620;28;20038;-61
2021/03/16 00:27:47;;;;;;;22.88;5.15;;;;;;;6.12;72.40;100539.84;4977124;28;20046;-62
2021/03/16 00:30:13;;;;;;;18.67;4.13;;;;;;;6.11;72.48;100538.06;4960193;28;20380;-61
2021/03/16 00:32:41;;;;;;;14.77;5.20;;;;;;;6.11;72.47;100545.81;4960878;28;20049;-61
2021/03/16 00:35:10;;;;;;;10.95;4.18;;;;;;;6.10;72.24;100544.91;4977816;28;20058;-62
2021/03/16 00:37:38;;;;;;;12.30;3.95;;;;;;;6.11;72.70;100540.66;4977505;28;20045;-61
2021/03/16 00:40:08;;;;;;;9.75;3.28;;;;;;;6.10;72.13;100547.47;4977378;28;20034;-62
2021/03/16 00:42:37;;;;;;;12.48;4.07;;;;;;;6.10;72.52;100547.47;4977318;28;20054;-62
2021/03/16 00:45:07;;;;;;;11.48;3.78;;;;;;;6.09;72.30;100540.56;4977136;28;20438;-61
2021/03/16 00:47:35;;;;;;;11.43;4.10;;;;;;;6.09;72.77;100546.63;4960242;28;20039;-61
2021/03/16 00:50:03;;;;;;;14.88;3.38;;;;;;;6.07;72.48;100550.81;4977263;28;20525;-61
2021/03/16 00:52:29;;;;;;;13.07;4.03;;;;;;;6.07;72.59;100553.38;4959660;28;20035;-61
2021/03/16 00:55:00;;;;;;;13.32;3.67;;;;;;;6.06;72.87;100572.22;4976855;28;20430;-62
2021/03/16 00:57:29;;;;;;;11.65;4.55;;;;;;;6.05;72.40;100560.16;4959613;28;20035;-61
2021/03/16 00:59:54;;;;;;;15.93;5.05;;;;;;;6.05;72.18;100567.88;4977194;28;20513;-62
2021/03/16 01:02:25;;;;;;;24.77;5.15;;;;;;;6.03;72.06;100572.06;4976711;28;20051;-61
2021/03/16 01:04:56;;;;;;;19.02;4.80;;;;;;;6.04;72.27;100571.25;4959759;28;20035;-61
2021/03/16 01:07:24;;;;;;;15.90;5.05;;;;;;;6.04;72.46;100566.13;4943483;28;20486;-62
2021/03/16 01:09:52;;;;;;;19.98;4.50;;;;;;;6.04;72.56;100578.97;4959658;28;20045;-62
2021/03/16 01:12:20;;;;;;;16.42;4.05;;;;;;;6.06;72.44;100584.22;4959374;28;20127;-62
2021/03/16 01:14:55;;;;;;;16.20;5.18;;;;;;;6.04;72.32;100585.84;4976762;28;20089;-61
2021/03/16 01:17:21;;;;;;;16.75;3.97;;;;;;;6.01;72.69;100583.13;4977003;28;20101;-61
2021/03/16 01:19:52;;;;;;;12.93;3.75;;;;;;;5.99;72.62;100582.13;4976395;28;20498;-61
2021/03/16 01:22:20;;;;;;;19.27;4.05;;;;;;;5.99;72.13;100587.28;4959043;28;20079;-61
2021/03/16 01:24:48;;;;;;;13.10;3.78;;;;;;;5.98;72.27;100578.69;4959385;28;20085;-61
2021/03/16 01:27:16;;;;;;;18.13;4.75;;;;;;;5.99;72.42;100585.63;4944170;28;20114;-61
2021/03/16 01:29:44;;;;;;;16.25;4.75;;;;;;;5.99;72.73;100577.00;4976563;28;20035;-61
2021/03/16 01:32:12;;;;;;;20.20;4.72;;;;;;;5.99;72.27;100583.03;4976403;28;20054;-61
2021/03/16 01:34:41;;;;;;;19.75;5.68;;;;;;;6.00;72.59;100587.38;4976491;28;20073;-62
2021/03/16 01:37:08;;;;;;;17.50;4.10;;;;;;;6.00;72.20;100586.50;4976731;28;20039;-62
2021/03/16 01:39:39;;;;;;;16.88;4.25;;;;;;;6.00;72.60;100583.94;4976686;28;20058;-61
2021/03/16 01:42:08;;;;;;;16.70;4.32;;;;;;;5.99;72.73;100589.88;4976494;28;20043;-61
2021/03/16 01:44:42;;;;;;;21.48;4.90;;;;;;;5.98;72.18;100583.84;4976282;28;20047;-62
2021/03/16 01:47:17;;;;;;;19.25;4.00;;;;;;;5.97;72.56;100582.09;4975867;28;20074;-64
2021/03/16 01:49:44;;;;;;;24.17;5.03;;;;;;;5.98;72.75;100588.09;4958604;28;20121;-61
2021/03/16 01:52:14;;;;;;;18.45;4.50;;;;;;;5.98;72.64;100582.94;4976137;28;20072;-61
2021/03/16 01:54:43;;;;;;;13.65;4.40;;;;;;;5.97;72.81;100586.34;4976497;28;20035;-62
2021/03/16 01:57:12;;;;;;;15.48;3.88;;;;;;;5.96;72.71;100585.47;4976114;28;20113;-62
2021/03/16 01:59:43;;;;;;;11.60;4.32;;;;;;;5.98;72.36;100594.16;4976047;28;20137;-62
2021/03/16 02:02:11;;;;;;;18.05;4.68;;;;;;;5.98;72.70;100589.00;4975427;28;20135;-61
2021/03/16 02:04:39;;;;;;;14.45;4.07;;;;;;;5.97;72.85;100587.22;4958478;28;20030;-61
2021/03/16 02:07:13;;;;;;;15.50;4.57;;;;;;;5.97;72.83;100581.19;4958285;28;20064;-62
2021/03/16 02:10:07;;;;;;;21.98;5.47;;;;;;;5.97;72.98;100594.06;4958568;28;20491;-61
2021/03/16 02:12:35;;;;;;;21.67;4.13;;;;;;;5.95;72.35;100589.72;4975565;28;20042;-61
2021/03/16 02:15:11;;;;;;;14.65;4.57;;;;;;;5.95;72.75;100592.28;4942115;28;20035;-61
2021/03/16 02:17:39;;;;;;;12.15;4.13;;;;;;;5.98;72.84;100586.41;4975464;28;20046;-62
2021/03/16 02:20:21;;;;;;;11.18;4.25;;;;;;;5.98;72.69;100580.38;4958388;28;20034;-61
2021/03/16 02:22:49;;;;;;;19.40;4.97;;;;;;;5.97;72.80;100584.66;4975677;28;20118;-62
2021/03/16 02:26:00;;;;;;;20.25;4.80;;;;;;;5.95;72.52;100584.56;4975862;28;20041;-61
2021/03/16 02:28:57;;;;;;;13.20;4.43;;;;;;;5.95;72.67;100592.28;4939401;28;20517;-61
2021/03/16 02:31:29;;;;;;;17.63;5.10;;;;;;;5.93;72.84;100581.06;4942318;28;20130;-62
2021/03/16 02:34:04;;;;;;;19.15;4.57;;;;;;;5.95;72.27;100586.28;4958469;28;20102;-61
2021/03/16 02:36:40;;;;;;;14.93;4.15;;;;;;;5.92;72.24;100584.44;4958296;28;20039;-61
2021/03/16 02:39:14;;;;;;;17.42;4.82;;;;;;;5.91;72.70;100586.97;4958176;28;20517;-61
2021/03/16 02:41:50;;;;;;;19.67;5.07;;;;;;;5.92;73.07;100588.72;4942081;28;20038;-62
2021/03/16 02:44:19;;;;;;;18.67;4.68;;;;;;;5.93;72.54;100593.06;4975591;28;20038;-62
2021/03/16 02:46:49;;;;;;;13.63;3.40;;;;;;;5.91;72.29;100590.44;4942114;28;20069;-61
2021/03/16 02:49:17;;;;;;;15.98;4.95;;;;;;;5.90;72.64;100595.47;4958086;28;20031;-61
2021/03/16 02:51:50;;;;;;;18.25;4.00;;;;;;;5.91;72.55;100597.25;4974712;28;20121;-62
2021/03/16 02:54:22;;;;;;;16.88;4.32;;;;;;;5.92;72.85;100602.44;4975141;28;20087;-61
2021/03/16 02:56:54;;;;;;;20.77;4.68;;;;;;;5.91;72.92;100603.28;4957716;28;20494;-61
2021/03/16 02:59:26;;;;;;;20.40;4.72;;;;;;;5.90;72.74;100598.94;4975123;28;20043;-62
2021/03/16 03:01:58;;;;;;;19.98;4.57;;;;;;;5.92;72.54;100599.88;4957137;28;20055;-62
2021/03/16 03:04:28;;;;;;;16.55;4.90;;;;;;;5.91;72.30;100608.44;4974507;28;20043;-61
2021/03/16 03:06:59;;;;;;;13.82;4.70;;;;;;;5.92;72.89;100609.31;4975174;28;20035;-62
2021/03/16 03:09:27;;;;;;;16.17;4.20;;;;;;;5.92;72.86;100615.31;4958046;28;20086;-61
2021/03/16 03:12:02;;;;;;;16.38;4.07;;;;;;;5.93;72.24;100605.91;4974875;28;20043;-61
2021/03/16 03:14:33;;;;;;;14.85;4.53;;;;;;;5.93;72.48;100608.50;4975183;28;20117;-61
2021/03/16 03:17:05;;;;;;;18.27;4.70;;;;;;;5.95;72.50;100619.72;4957599;28;20049;-61
2021/03/16 03:19:38;;;;;;;19.40;5.22;;;;;;;5.94;72.44;100607.69;4974427;28;20050;-61
2021/03/16 03:22:34;;;;;;;12.02;3.83;;;;;;;5.95;72.59;100612.00;4957523;28;20394;-61
2021/03/16 03:25:23;;;;;;;12.25;3.40;;;;;;;5.93;72.61;100609.34;4957623;28;20394;-61
2021/03/16 03:28:03;;;;;;;10.75;4.30;;;;;;;5.95;72.85;100612.00;4957372;28;20042;-62
2021/03/16 03:30:29;;;;;;;14.50;4.28;;;;;;;5.95;72.68;100612.00;4957601;28;20034;-61
2021/03/16 03:33:01;;;;;;;18.42;5.18;;;;;;;5.94;72.32;100620.53;4974775;28;20039;-61
2021/03/16 03:35:32;;;;;;;14.68;5.10;;;;;;;5.92;72.67;100623.03;4974227;28;20035;-61
2021/03/16 03:37:59;;;;;;;12.82;4.15;;;;;;;5.94;72.73;100629.13;4956963;28;20039;-62
2021/03/16 03:40:26;;;;;;;16.98;4.05;;;;;;;5.97;72.94;100635.22;4956946;28;20035;-61
2021/03/16 03:42:56;;;;;;;17.35;5.10;;;;;;;5.95;73.03;100640.31;4957229;28;20100;-61
2021/03/16 03:45:28;;;;;;;14.35;4.00;;;;;;;5.98;72.39;100637.00;4974357;28;20113;-61
2021/03/16 03:48:03;;;;;;;21.00;6.63;;;;;;;5.95;72.36;100635.16;4957455;28;20038;-61
2021/03/16 03:50:31;;;;;;;;;;;;;;;5.93;72.42;100631.66;4957577;28;20066;-61
2021/03/16 03:52:58;;;;;;;10.50;3.58;;;;;;;5.96;72.59;100636.94;4957001;28;19917;-61
2021/03/16 03:55:29;;;;;;;21.25;5.20;;;;;;;5.94;72.33;100639.41;4941298;28;20046;-61
2021/03/16 03:57:58;;;;;;;20.00;5.13;;;;;;;5.94;72.38;100638.56;4956842;28;20066;-62
2021/03/16 04:00:27;;;;;;;13.73;5.07;;;;;;;5.93;72.55;100639.38;4974402;28;20041;-61
2021/03/16 04:02:55;;;;;;;20.42;6.45;;;;;;;5.94;73.04;100638.56;4940771;28;20042;-61
2021/03/16 04:05:24;;;;;;;17.80;5.05;;;;;;;5.93;73.02;100636.78;4974254;28;20077;-61
2021/03/16 04:07:54;;;;;;;18.33;5.80;;;;;;;5.93;72.59;100647.09;4974706;28;20129;-61
2021/03/16 04:10:20;;;;;;;17.73;4.72;;;;;;;5.92;72.63;100637.59;4956839;28;20046;-61
2021/03/16 04:12:47;;;;;;;15.27;4.97;;;;;;;5.93;72.59;100637.66;4974451;28;20046;-61
2021/03/16 04:15:19;;;;;;;17.23;4.78;;;;;;;5.93;72.77;100637.66;4974372;28;20031;-61
2021/03/16 04:17:46;;;;;;;14.68;5.18;;;;;;;5.93;72.75;100639.38;4956947;28;20114;-62
2021/03/16 04:20:17;;;;;;;17.20;5.43;;;;;;;5.93;73.05;100636.78;4974449;28;20129;-61
2021/03/16 04:22:45;;;;;;;24.00;6.60;;;;;;;5.91;72.74;100636.75;4957363;28;20089;-61
2021/03/16 04:25:14;;;;;;;16.48;5.13;;;;;;;5.92;73.00;100638.47;4974106;28;20062;-61
2021/03/16 04:27:40;;;;;;;15.60;5.20;;;;;;;5.94;72.54;100641.13;4974187;28;20067;-61
2021/03/16 04:30:10;;;;;;;20.38;5.63;;;;;;;5.92;72.72;100643.63;4975157;28;20077;-61
2021/03/16 04:32:35;;;;;;;20.10;5.60;;;;;;;5.93;72.60;100644.50;4944123;28;20077;-61
2021/03/16 04:35:04;;;;;;;14.63;5.68;;;;;;;5.93;72.75;100647.09;4960441;28;20078;-61
2021/03/16 04:37:33;;;;;;;19.02;5.28;;;;;;;5.92;72.65;100643.63;4977635;28;20035;-61
2021/03/16 04:40:01;;;;;;;18.70;5.75;;;;;;;5.93;72.97;100647.09;4960786;28;20050;-61
2021/03/16 04:42:30;;;;;;;22.80;5.30;;;;;;;5.95;73.02;100648.03;4944051;28;20391;-61
2021/03/16 04:44:58;;;;;;;18.48;5.20;;;;;;;5.93;72.97;100644.50;4959483;28;20035;-63
2021/03/16 04:47:27;;;;;;;20.15;6.47;;;;;;;5.94;72.78;100646.28;4959897;28;20065;-62
2021/03/16 04:49:55;;;;;;;14.52;4.28;;;;;;;5.92;72.73;100653.91;4960033;28;20042;-62
2021/03/16 04:52:22;;;;;;;25.67;5.88;;;;;;;5.93;72.72;100647.94;4977244;28;20074;-61
2021/03/16 04:54:51;;;;;;;21.20;5.30;;;;;;;5.94;72.79;100648.84;4943456;28;20100;-61
2021/03/16 04:57:19;;;;;;;19.33;4.85;;;;;;;5.95;72.89;100655.75;4960059;28;20031;-61
2021/03/16 04:59:49;;;;;;;16.73;5.25;;;;;;;5.96;72.93;100657.53;4943635;28;20398;-62
2021/03/16 05:02:20;;;;;;;18.13;5.00;;;;;;;5.96;73.14;100662.66;4959149;28;20557;-62
2021/03/16 05:04:47;;;;;;;21.65;5.63;;;;;;;5.95;72.72;100664.34;4977169;28;20122;-61
2021/03/16 05:07:13;;;;;;;21.40;4.88;;;;;;;5.96;72.91;100670.38;4976954;28;20042;-61
2021/03/16 05:09:44;;;;;;;17.00;5.32;;;;;;;5.95;72.60;100671.19;4976793;28;20054;-62
2021/03/16 05:12:15;;;;;;;24.00;4.45;;;;;;;5.95;73.34;100666.03;4959248;28;20035;-62
2021/03/16 05:14:43;;;;;;;12.65;4.85;;;;;;;5.92;72.27;100671.91;4959646;28;20049;-61
2021/03/16 05:17:12;;;;;;;14.63;4.93;;;;;;;5.91;72.71;100675.34;4976909;28;20094;-61
2021/03/16 05:19:38;;;;;;;19.90;4.40;;;;;;;5.92;72.60;100671.06;4977233;28;20062;-61
2021/03/16 05:22:06;;;;;;;23.30;4.55;;;;;;;5.91;73.02;100685.63;4976551;28;20034;-61
2021/03/16 05:24:34;;;;;;;13.90;5.03;;;;;;;5.90;73.01;100686.44;4976554;28;20062;-61
2021/03/16 05:27:03;;;;;;;20.77;4.97;;;;;;;5.91;72.77;100695.91;4976706;28;20182;-62
2021/03/16 05:29:33;;;;;;;13.90;4.07;;;;;;;5.89;72.90;100694.06;4976383;28;20038;-62
2021/03/16 05:32:04;;;;;;;15.02;3.78;;;;;;;5.88;72.36;100692.28;4959633;28;20046;-61
2021/03/16 05:34:30;;;;;;;17.08;4.53;;;;;;;5.88;72.96;100688.06;4959471;28;20027;-61
2021/03/16 05:36:58;;;;;;;15.10;3.95;;;;;;;5.89;73.17;100692.38;4959045;28;20049;-61
2021/03/16 05:39:26;;;;;;;17.30;4.22;;;;;;;5.89;72.91;100691.50;4958877;28;20065;-61
2021/03/16 05:41:54;;;;;;;17.80;4.78;;;;;;;5.89;72.95;100691.50;4975631;28;20074;-61
2021/03/16 05:44:22;;;;;;;15.13;4.10;;;;;;;5.87;72.98;100691.44;4976635;28;20038;-61
2021/03/16 05:46:51;;;;;;;26.67;5.15;;;;;;;5.89;73.23;100696.63;4976506;28;20039;-61
2021/03/16 05:49:21;;;;;;;20.42;5.38;;;;;;;5.88;72.49;100695.75;4976246;28;20073;-62
2021/03/16 05:51:49;;;;;;;16.35;3.83;;;;;;;5.88;72.86;100695.75;4942392;28;20100;-61
2021/03/16 05:54:17;;;;;;;9.35;4.15;;;;;;;5.86;72.57;100704.19;4976067;28;20406;-61
2021/03/16 05:56:46;;;;;;;12.02;3.30;;;;;;;5.86;73.30;100705.09;4958672;28;20034;-61
2021/03/16 05:59:20;;;;;;;13.77;3.92;;;;;;;5.85;72.58;100713.63;4958930;28;20411;-61
2021/03/16 06:01:49;;;;;;;9.75;3.40;;;;;;;5.86;72.78;100712.81;4942286;28;20101;-62
2021/03/16 06:04:20;;;;;;;20.33;4.63;;;;;;;5.85;72.63;100713.63;4958390;28;20045;-61
2021/03/16 06:06:49;;;;;;;12.13;3.60;;;;;;;5.86;72.51;100717.06;4975711;28;20031;-61
2021/03/16 06:09:19;;;;;;;19.13;4.55;;;;;;;5.84;72.76;100717.00;4975527;28;20039;-61
2021/03/16 06:11:51;;;;;;;12.00;3.60;;;;;;;5.86;73.25;100712.81;4942429;28;20498;-61
2021/03/16 06:14:29;;;;;;;14.45;4.07;;;;;;;5.87;72.61;100716.25;4975675;28;20034;-61
2021/03/16 06:16:57;;;;;;;16.58;4.15;;;;;;;5.87;73.02;100716.25;4958495;28;20034;-63
2021/03/16 06:19:34;;;;;;;11.98;4.30;;;;;;;5.84;72.47;100719.59;4975974;28;20035;-61
2021/03/16 06:22:05;;;;;;;14.93;4.05;;;;;;;5.85;73.20;100726.50;4958646;28;20379;-61
2021/03/16 06:24:44;;;;;;;11.98;3.63;;;;;;;5.85;73.04;100730.75;4975661;28;20046;-61
2021/03/16 06:27:47;;;;;;;13.48;4.45;;;;;;;5.85;73.30;100725.59;4975833;28;20107;-61
2021/03/16 06:30:24;;;;;;;12.65;3.65;;;;;;;5.83;72.81;100727.25;4946170;28;20050;-61
2021/03/16 06:32:50;;;;;;;16.10;3.70;;;;;;;5.83;72.94;100727.25;4957967;28;20065;-61
2021/03/16 06:35:24;;;;;;;8.80;3.63;;;;;;;5.81;72.85;100727.16;4958161;28;20066;-61
2021/03/16 06:38:07;;;;;;;14.45;3.42;;;;;;;5.82;72.79;100728.06;4941737;28;20498;-63
2021/03/16 06:40:34;;;;;;;8.27;3.30;;;;;;;5.82;73.19;100735.78;4975546;28;20034;-61
2021/03/16 06:43:12;;;;;;;9.20;3.05;;;;;;;5.82;72.93;100736.63;4975147;28;20549;-61
2021/03/16 06:45:42;;;;;;;15.07;3.55;;;;;;;5.82;72.87;100728.91;4975167;28;20404;-61
2021/03/16 06:48:18;;;;;;;14.93;4.40;;;;;;;5.80;72.90;100735.69;4957917;28;20090;-61
2021/03/16 06:50:47;;;;;;;10.82;3.10;;;;;;;5.82;72.66;100728.91;4958074;28;20477;-62
2021/03/16 06:53:24;;;;;;;14.65;3.17;;;;;;;5.81;72.71;100732.31;4974600;28;20414;-61
2021/03/16 06:55:53;;;;;;;8.52;3.17;;;;;;;5.82;73.13;100738.34;4975146;28;20078;-61
2021/03/16 06:58:26;;;;;;;11.35;4.22;;;;;;;5.80;72.97;100738.25;4941771;28;20047;-61
2021/03/16 07:01:08;;;;;;;9.57;3.17;;;;;;;5.78;72.86;100745.91;4957576;28;20047;-61
2021/03/16 07:03:39;;;;;;;10.93;2.55;;;;;;;5.78;73.56;100743.34;4957145;28;20126;-61
2021/03/16 07:06:14;;;;;;;20.55;5.93;;;;;;;5.77;73.23;100739.00;4975263;28;20053;-61
2021/03/16 07:08:52;;;;;;;10.48;3.58;;;;;;;5.77;73.31;100743.25;4957530;28;20038;-61
2021/03/16 07:11:25;;;;;;;12.52;3.90;;;;;;;5.77;72.79;100745.81;4957460;28;20155;-62
2021/03/16 07:13:58;;;;;;;15.63;3.70;;;;;;;5.79;73.02;100745.09;4974573;28;20090;-62
2021/03/16 07:16:31;;;;;;;12.07;3.63;;;;;;;5.78;72.83;100737.28;4957855;28;20062;-62
2021/03/16 07:19:03;;;;;;;20.63;4.95;;;;;;;5.78;72.69;100740.75;4941680;28;20333;-62
2021/03/16 07:21:55;;;;;;;12.27;4.78;;;;;;;5.78;72.50;100740.75;4974710;28;20042;-61
2021/03/16 07:24:28;;;;;;;14.32;4.45;;;;;;;5.78;73.27;100742.44;4957715;28;20034;-61
2021/03/16 07:27:01;;;;;;;15.02;4.20;;;;;;;5.77;73.35;100746.72;4975347;28;20031;-61
2021/03/16 07:29:27;;;;;;;9.85;4.03;;;;;;;5.78;73.11;100756.19;4957272;28;20060;-61
2021/03/16 07:31:56;;;;;;;9.48;3.28;;;;;;;5.79;73.03;100757.97;4974184;28;20458;-61
2021/03/16 07:34:31;;;;;;;12.63;4.22;;;;;;;5.79;73.15;100764.78;4941353;28;20498;-61
2021/03/16 07:37:05;;;;;;;21.00;7.20;;;;;;;5.79;72.71;100763.09;4974622;28;20093;-61
2021/03/16 07:39:41;;;;;;;17.70;5.55;;;;;;;5.81;73.27;100755.44;4974805;28;20077;-61
2021/03/16 07:42:14;;;;;;;18.85;6.13;;;;;;;5.81;73.27;100763.16;4974574;28;20107;-61
2021/03/16 07:44:53;;;;;;;20.15;7.03;;;;;;;5.79;72.67;100755.41;4974390;28;20043;-62
2021/03/16 07:47:42;;;;;;;19.98;5.22;;;;;;;5.78;73.20;100765.59;4956744;28;20043;-61
2021/03/16 07:50:13;;;;;;;18.38;5.20;;;;;;;5.77;73.25;100777.59;4956801;28;20082;-61
2021/03/16 07:52:51;;;;;;;16.27;5.35;;;;;;;5.79;72.65;100778.53;4956924;28;20031;-61
2021/03/16 07:55:32;;;;;;;9.93;4.32;;;;;;;5.81;72.86;100780.31;4956790;28;20058;-61
2021/03/16 07:58:12;;;;;;;15.77;5.82;;;;;;;5.79;72.86;100775.06;4956485;28;20043;-61
2021/03/16 08:00:41;;;;;;;22.05;5.82;;;;;;;5.78;72.60;100774.22;4974500;28;20126;-61
2021/03/16 08:03:27;;;;;;;19.55;5.65;;;;;;;5.77;73.31;100775.00;4956907;28;20051;-61
2021/03/16 08:05:57;;;;;;;14.70;5.47;;;;;;;5.79;73.32;100782.78;4976896;28;20042;-61
2021/03/16 08:08:43;;;;;;;20.52;7.10;;;;;;;5.79;73.29;100780.22;4961186;28;20031;-61
2021/03/16 08:11:24;;;;;;;;;;;;;;;5.77;72.72;100775.00;4961418;28;20375;-61
2021/03/16 08:14:04;;;;;;;17.65;6.57;;;;;;;5.77;72.88;100777.59;4944450;28;19921;-61
2021/03/16 08:16:48;;;;;;;16.27;5.93;;;;;;;5.79;72.76;100788.84;4960881;28;20038;-61
2021/03/16 08:19:19;;;;;;;16.95;6.07;;;;;;;5.79;72.74;100782.78;4978084;28;20129;-61
2021/03/16 08:21:56;;;;;;;17.05;5.97;;;;;;;5.78;73.03;100781.03;4960823;28;20038;-61
2021/03/16 08:24:34;;;;;;;23.23;6.75;;;;;;;5.79;72.69;100781.13;4960601;28;20043;-62
2021/03/16 08:27:05;;;;;;;20.83;6.28;;;;;;;5.79;73.58;100782.78;4977665;28;20038;-61
2021/03/16 08:29:41;;;;;;;16.45;6.75;;;;;;;5.78;73.09;100786.16;4977936;28;20038;-61
2021/03/16 08:32:16;;;;;;;15.00;6.10;;;;;;;5.79;72.89;100782.78;4944430;28;20107;-61
2021/03/16 08:34:51;;;;;;;30.02;7.82;;;;;;;5.81;73.65;100780.31;4977672;28;20031;-61
2021/03/16 08:37:28;;;;;;;13.65;6.47;;;;;;;5.79;73.18;100781.13;4959697;28;20517;-61
2021/03/16 08:39:57;;;;;;;18.48;6.00;;;;;;;5.82;72.92;100784.66;4960415;28;20490;-61
2021/03/16 08:42:33;;;;;;;18.40;7.65;;;;;;;5.81;72.91;100778.59;4960272;28;20031;-62
2021/03/16 08:45:08;;;;;;;26.40;7.85;;;;;;;5.82;73.11;100784.66;4959896;28;20126;-62
2021/03/16 08:47:39;;;;;;;;;;;;;;;5.79;73.18;100788.84;4960481;28;20066;-62
2021/03/16 08:50:16;;;;;;;17.25;7.95;;;;;;;5.79;72.96;100782.78;4959904;28;19989;-61
2021/03/16 08:52:49;;;;;;;28.65;7.80;;;;;;;5.81;72.77;100786.31;4977448;28;20034;-62
2021/03/16 08:55:46;;;;;;;15.73;6.65;;;;;;;5.82;72.90;100779.50;4977606;28;20066;-61
2021/03/16 08:58:16;;;;;;;16.95;7.07;;;;;;;5.83;73.06;100783.84;4976008;28;20133;-61
2021/03/16 09:00:51;;;;;;;21.00;7.43;;;;;;;5.83;73.04;100783.84;4977143;28;20031;-61
2021/03/16 09:03:37;;;;;;;17.25;7.38;;;;;;;5.82;72.64;100788.09;4959561;28;20414;-61
2021/03/16 09:06:16;;;;;;;20.77;8.00;;;;;;;5.83;73.52;100789.84;4976051;28;20143;-61
2021/03/16 09:08:50;;;;;;;26.58;9.70;;;;;;;5.83;73.10;100795.00;4960074;28;20045;-62
2021/03/16 09:11:33;;;;;;;30.17;10.55;;;;;;;5.81;73.02;100788.91;4959977;28;20605;-61
2021/03/16 09:14:17;;;;;;;23.58;10.32;;;;;;;5.83;73.41;100789.00;4976950;28;20042;-62
2021/03/16 09:16:53;;;;;;;23.87;9.80;;;;;;;5.83;73.30;100799.28;4976790;28;20035;-62
2021/03/16 09:19:31;;;;;;;18.92;8.88;;;;;;;5.83;73.10;100799.28;4959703;28;20117;-62
2021/03/16 09:22:02;;;;;;;25.70;9.02;;;;;;;5.84;73.29;100795.91;4959873;28;20031;-61
2021/03/16 09:24:32;;;;;;;20.67;8.98;;;;;;;5.84;72.78;100801.03;4959240;28;20031;-62
2021/03/16 09:27:02;;;;;;;22.48;9.65;;;;;;;5.84;73.29;100801.91;4976847;28;20045;-61
2021/03/16 09:29:36;;;;;;;18.63;9.88;;;;;;;5.84;73.42;100801.03;4943191;28;20038;-62
2021/03/16 09:32:09;;;;;;;17.15;9.18;;;;;;;5.83;73.05;100800.16;4959654;28;20039;-61
2021/03/16 09:34:43;;;;;;;16.60;8.68;;;;;;;5.83;73.44;100802.72;4976849;28;20034;-62
2021/03/16 09:37:11;;;;;;;17.35;8.63;;;;;;;5.84;73.10;100801.91;4959451;28;20034;-61
2021/03/16 09:39:51;;;;;;;21.88;7.80;;;;;;;5.85;73.55;100803.69;4959330;28;20117;-62
2021/03/16 09:42:30;;;;;;;13.30;7.75;;;;;;;5.83;73.33;100810.44;4976449;28;20129;-62
2021/03/16 09:44:58;;;;;;;23.42;9.35;;;;;;;5.86;73.16;100804.53;4959232;28;20041;-61
2021/03/16 09:47:26;;;;;;;18.38;9.32;;;;;;;5.86;73.42;100804.53;4942856;28;20129;-61
2021/03/16 09:50:32;;;;;;;23.58;9.65;;;;;;;5.84;73.30;100790.75;4976212;28;20502;-62
2021/03/16 09:53:06;;;;;;;16.00;8.65;;;;;;;5.86;73.45;100799.41;4975607;28;20046;-62
2021/03/16 09:55:32;;;;;;;;;;;;;;;5.84;73.19;100801.91;4959463;28;20035;-61
2021/03/16 09:57:58;;;;;;;19.67;8.45;;;;;;;5.85;72.92;100800.19;4958735;28;19921;-62
2021/03/16 10:00:25;;;;;;;15.98;7.38;;;;;;;5.84;73.24;100807.06;4975972;28;20053;-61
2021/03/16 10:03:12;;;;;;;15.98;7.43;;;;;;;5.82;73.29;100794.94;4958274;28;20058;-62
2021/03/16 10:05:41;;;;;;;19.02;7.75;;;;;;;5.83;73.77;100794.13;4942443;28;20039;-62
2021/03/16 10:08:12;;;;;;;21.08;8.25;;;;;;;5.84;73.41;100795.91;4975742;28;20031;-62
2021/03/16 10:10:43;;;;;;;18.98;7.78;;;;;;;5.84;73.39;100803.63;4942602;28;20034;-61
2021/03/16 10:13:12;;;;;;;17.25;6.82;;;;;;;5.83;73.51;100800.16;4958473;28;20053;-62
2021/03/16 10:15:42;;;;;;;10.27;6.25;;;;;;;5.84;73.67;100801.03;4976127;28;20038;-62
2021/03/16 10:18:15;;;;;;;12.77;6.50;;;;;;;5.84;73.02;100798.47;4958649;28;20376;-62
2021/03/16 10:20:45;;;;;;;13.65;6.40;;;;;;;5.84;73.30;100804.47;4958081;28;20478;-61
2021/03/16 10:23:19;;;;;;;16.92;6.50;;;;;;;5.84;73.77;100807.06;4975713;28;20035;-62
2021/03/16 10:26:00;;;;;;;13.73;5.68;;;;;;;5.84;73.17;100801.91;4957944;28;20042;-62
2021/03/16 10:28:38;;;;;;;10.30;5.13;;;;;;;5.83;73.12;100804.41;4957667;28;20039;-62
2021/03/16 10:31:10;;;;;;;12.85;5.72;;;;;;;5.81;73.64;100801.75;4958640;28;20035;-62
2021/03/16 10:33:35;;;;;;;12.30;5.25;;;;;;;5.83;73.46;100799.28;4975600;28;20030;-62
2021/03/16 10:36:07;;;;;;;10.55;4.68;;;;;;;5.83;73.61;100809.56;4957858;28;20047;-62
2021/03/16 10:38:35;;;;;;;11.00;4.47;;;;;;;5.82;73.44;100797.50;4975450;28;20472;-62
2021/03/16 10:41:04;;;;;;;9.38;4.07;;;;;;;5.83;73.81;100799.28;4975297;28;20046;-62
2021/03/16 10:43:30;;;;;;;9.63;4.45;;;;;;;5.82;72.97;100794.94;4957707;28;20505;-61
2021/03/16 10:46:02;;;;;;;10.68;4.20;;;;;;;5.83;73.68;100794.13;4958394;28;20039;-62
2021/03/16 10:48:32;;;;;;;6.68;4.05;;;;;;;5.83;73.45;100789.84;4975259;28;20039;-62
2021/03/16 10:51:03;;;;;;;10.32;4.18;;;;;;;5.83;73.58;100791.56;4975150;28;20038;-62
2021/03/16 10:53:32;;;;;;;9.23;4.22;;;;;;;5.82;72.99;100793.22;4975162;28;20038;-61
2021/03/16 10:56:03;;;;;;;7.35;3.58;;;;;;;5.81;72.93;100790.59;4975033;28;20490;-62
2021/03/16 10:58:32;;;;;;;8.45;4.28;;;;;;;5.82;73.79;100792.38;4957711;28;20406;-62
2021/03/16 11:01:01;;;;;;;5.10;3.72;;;;;;;5.82;73.60;100794.94;4957758;28;20035;-62
2021/03/16 11:03:29;;;;;;;8.00;3.83;;;;;;;5.81;73.47;100793.16;4957121;28;20121;-62
2021/03/16 11:05:57;;;;;;;6.18;2.83;;;;;;;5.82;73.30;100797.50;4974928;28;20034;-62
2021/03/16 11:08:31;;;;;;;4.30;2.92;;;;;;;5.82;73.10;100792.38;4941861;28;20049;-61
2021/03/16 11:10:57;;;;;;;8.13;3.10;;;;;;;5.83;73.42;100800.16;4974597;28;20039;-62
2021/03/16 11:13:35;;;;;;;2.63;2.15;;;;;;;5.82;73.60;100798.38;4974940;28;20039;-61
2021/03/16 11:16:06;;;;;;;3.67;2.17;;;;;;;5.83;73.43;100789.00;4975114;28;20045;-62
2021/03/16 11:18:31;;;;;;;6.15;2.60;;;;;;;5.83;73.58;100789.84;4957629;28;20134;-62
2021/03/16 11:21:02;;;;;;;4.20;2.20;;;;;;;5.82;73.18;100777.78;4957475;28;20066;-61
2021/03/16 11:23:31;;;;;;;3.42;2.67;;;;;;;5.83;73.39;100786.41;4975317;28;20519;-61
2021/03/16 11:26:03;;;;;;;4.25;3.17;;;;;;;5.84;73.39;100788.19;4974851;28;20492;-61
2021/03/16 11:28:32;;;;;;;4.70;2.30;;;;;;;5.81;73.17;100788.91;4974893;28;20031;-62
2021/03/16 11:31:00;;;;;;;6.68;3.67;;;;;;;5.84;73.13;100793.31;4974360;28;20387;-62
2021/03/16 11:33:29;;;;;;;5.22;3.20;;;;;;;5.83;73.05;100789.84;4974851;28;20169;-62
2021/03/16 11:35:57;;;;;;;3.58;2.92;;;;;;;5.82;73.50;100785.50;4957404;28;20045;-62
2021/03/16 11:38:26;;;;;;;3.03;2.70;;;;;;;5.84;73.30;100783.91;4974638;28;20046;-62
2021/03/16 11:40:57;;;;;;;5.72;2.60;;;;;;;5.84;73.07;100781.31;4976807;28;20042;-62
2021/03/16 11:43:25;;;;;;;3.38;2.00;;;;;;;5.86;73.33;100777.13;4978858;28;20035;-61
2021/03/16 11:45:53;;;;;;;6.03;2.60;;;;;;;5.86;73.63;100764.28;4961710;28;20090;-62
2021/03/16 11:48:24;;;;;;;4.93;2.78;;;;;;;5.86;73.38;100768.53;4961327;28;20047;-61